Time;durP1;ratioP1;P1;durP2;ratioP2;P2;SDS_P1;SDS_P2;PMS_P1;PMS_P2;Temp;Humidity;BMP_temperature;BMP_pressure;BME280_temperature;BME280_humidity;BME280_pressure;Samples;Min_cycle;Max_cycle;Signal;HPM_P1;HPM_P2
2021/06/27 00:01:52;;;;;;;7.30;6.63;;;;;;;20.13;62.10;100504.62;124027;1096;115060;-79
2021/06/27 00:04:20;;;;;;;8.53;6.93;;;;;;;20.18;62.23;100518.71;124660;1096;103102;-78
2021/06/27 00:06:48;;;;;;;7.43;6.73;;;;;;;20.15;62.34;100515.33;124280;1096;103180;-79
2021/06/27 00:09:15;;;;;;;7.23;6.53;;;;;;;20.15;61.70;100515.33;124488;1096;114568;-79
2021/06/27 00:11:43;;;;;;;8.65;6.45;;;;;;;20.11;61.84;100520.05;124268;1096;102968;-78
2021/06/27 00:14:10;;;;;;;6.63;5.97;;;;;;;20.10;62.38;100507.53;124552;1096;114500;-79
2021/06/27 00:16:39;;;;;;;7.68;6.93;;;;;;;20.09;62.94;100511.20;124188;1095;103041;-78
2021/06/27 00:19:07;;;;;;;9.10;7.03;;;;;;;20.03;62.46;100512.47;124329;1096;103025;-79
2021/06/27 00:21:35;;;;;;;8.20;7.23;;;;;;;19.97;63.31;100511.98;123952;1097;114457;-79
2021/06/27 00:24:03;;;;;;;12.50;8.67;;;;;;;19.86;63.09;100509.98;124355;1096;102999;-79
2021/06/27 00:26:30;;;;;;;10.40;7.93;;;;;;;19.76;63.49;100517.74;124040;1096;114908;-79
2021/06/27 00:29:12;;;;;;;8.00;6.20;;;;;;;19.73;64.07;100515.25;124504;1096;103324;-79
2021/06/27 00:31:39;;;;;;;10.17;7.37;;;;;;;19.74;64.57;100521.50;123977;1096;114783;-79
2021/06/27 00:34:08;;;;;;;9.80;7.05;;;;;;;19.76;63.87;100511.48;124750;1096;103294;-79
2021/06/27 00:36:35;;;;;;;9.23;7.58;;;;;;;19.65;64.66;100510.31;124335;1096;103156;-78
2021/06/27 00:39:04;;;;;;;7.40;6.70;;;;;;;19.65;64.39;100525.67;124398;1096;115479;-79
2021/06/27 00:41:31;;;;;;;9.58;6.85;;;;;;;19.62;64.59;100520.44;124191;1096;103167;-79
2021/06/27 00:44:01;;;;;;;8.43;7.53;;;;;;;19.60;64.65;100522.38;124559;1096;114718;-79
2021/06/27 00:46:50;;;;;;;8.90;7.37;;;;;;;19.59;64.33;100513.39;124449;1096;103046;-79
2021/06/27 00:49:17;;;;;;;7.20;6.50;;;;;;;19.53;64.77;100527.30;124908;1095;114603;-80
2021/06/27 00:51:45;;;;;;;8.80;7.53;;;;;;;19.45;65.53;100519.66;124260;1096;103071;-79
2021/06/27 00:54:13;;;;;;;7.95;6.68;;;;;;;19.40;65.80;100521.77;124667;1096;103045;-80
2021/06/27 00:56:44;;;;;;;6.90;6.20;;;;;;;19.36;65.62;100509.42;124805;1096;116272;-80
2021/06/27 00:59:13;;;;;;;7.63;6.90;;;;;;;19.32;65.88;100514.13;125147;1096;103086;-78
2021/06/27 01:01:41;;;;;;;8.45;7.03;;;;;;;19.26;65.77;100506.43;125133;1096;114861;-79
2021/06/27 01:04:09;;;;;;;7.30;6.60;;;;;;;19.18;65.89;100512.30;124626;1096;103160;-79
2021/06/27 01:06:36;;;;;;;8.58;7.53;;;;;;;19.21;66.03;100511.23;124484;1096;103025;-78
2021/06/27 01:09:04;;;;;;;7.63;6.83;;;;;;;19.15;65.90;100506.20;124440;1096;114545;-78
2021/06/27 01:11:32;;;;;;;7.80;7.05;;;;;;;19.16;66.47;100503.40;124519;1095;103022;-79
2021/06/27 01:14:07;;;;;;;7.93;7.13;;;;;;;19.15;66.15;100501.69;124589;1096;116118;-78
2021/06/27 01:16:48;;;;;;;8.43;7.00;;;;;;;19.21;66.05;100508.54;124548;1096;103039;-79
2021/06/27 01:19:16;;;;;;;9.50;7.35;;;;;;;19.26;65.65;100516.34;124217;1096;114700;-79
2021/06/27 01:21:43;;;;;;;7.60;6.80;;;;;;;19.23;65.65;100511.14;124564;1096;102940;-79
2021/06/27 01:24:11;;;;;;;6.93;6.23;;;;;;;19.26;65.71;100522.63;124633;1095;103463;-80
2021/06/27 01:26:39;;;;;;;9.48;7.73;;;;;;;19.29;65.78;100522.44;124226;1095;116097;-78
2021/06/27 01:29:07;;;;;;;14.90;7.63;;;;;;;19.25;66.18;100522.73;124646;1096;103502;-79
2021/06/27 01:31:35;;;;;;;8.33;7.20;;;;;;;19.14;66.16;100516.14;124426;1096;117024;-78
2021/06/27 01:34:03;;;;;;;9.60;7.85;;;;;;;19.09;66.50;100529.05;124576;1096;103604;-79
2021/06/27 01:36:44;;;;;;;8.97;8.07;;;;;;;19.02;66.25;100520.44;124639;1095;103544;-78
2021/06/27 01:39:11;;;;;;;12.20;7.78;;;;;;;18.98;66.83;100520.70;124564;1096;116048;-79
2021/06/27 01:41:47;;;;;;;10.10;7.80;;;;;;;18.86;67.13;100519.59;124638;1096;103180;-79
2021/06/27 01:44:30;;;;;;;8.87;7.40;;;;;;;18.84;67.39;100532.30;124237;1096;115212;-78
2021/06/27 01:46:58;;;;;;;8.90;8.00;;;;;;;18.79;67.44;100527.16;124267;1096;103423;-78
2021/06/27 01:49:26;;;;;;;8.13;6.90;;;;;;;18.81;67.45;100527.95;124157;1096;114771;-77
2021/06/27 01:51:54;;;;;;;8.60;7.40;;;;;;;18.83;67.51;100525.16;124264;1096;103043;-78
2021/06/27 01:54:21;;;;;;;9.45;7.75;;;;;;;18.78;67.54;100528.14;124230;1096;103013;-79
2021/06/27 01:56:49;;;;;;;9.13;8.23;;;;;;;18.76;67.72;100527.34;124169;1096;114605;-79
2021/06/27 01:59:16;;;;;;;8.25;7.28;;;;;;;18.75;67.76;100522.90;124189;1097;103148;-79
2021/06/27 02:01:57;;;;;;;8.18;7.38;;;;;;;18.70;67.73;100519.63;123696;1100;114153;-78
2021/06/27 02:04:26;;;;;;;9.67;7.63;;;;;;;18.75;67.79;100525.59;123778;1100;103757;-78
2021/06/27 02:06:53;;;;;;;9.03;8.00;;;;;;;18.73;68.02;100519.44;123685;1100;103231;-79
2021/06/27 02:09:22;;;;;;;8.00;7.20;;;;;;;18.68;67.87;100525.09;123502;1098;114570;-79
2021/06/27 02:11:49;;;;;;;7.70;7.00;;;;;;;18.71;67.73;100515.95;123703;1099;103115;-80
2021/06/27 02:14:16;;;;;;;9.25;7.85;;;;;;;18.66;68.18;100516.23;124167;1096;115621;-79
2021/06/27 02:16:58;;;;;;;8.80;7.67;;;;;;;18.59;68.24;100516.67;124046;1098;104017;-79
2021/06/27 02:19:39;;;;;;;8.68;7.78;;;;;;;18.52;68.47;100514.31;123704;1099;115024;-79
2021/06/27 02:22:07;;;;;;;8.90;8.07;;;;;;;18.47;68.49;100521.83;123670;1098;103192;-79
2021/06/27 02:24:36;;;;;;;8.57;7.73;;;;;;;18.43;68.86;100524.78;123908;1100;103132;-78
2021/06/27 02:27:04;;;;;;;9.28;7.68;;;;;;;18.40;68.77;100525.81;123613;1100;116053;-79
2021/06/27 02:29:31;;;;;;;7.83;6.87;;;;;;;18.48;68.69;100523.55;123888;1098;103156;-79
2021/06/27 02:31:59;;;;;;;9.77;8.00;;;;;;;18.51;68.39;100520.69;123486;1098;114346;-78
2021/06/27 02:34:40;;;;;;;8.67;7.90;;;;;;;18.50;68.44;100527.04;123596;1100;103699;-79
2021/06/27 02:37:08;;;;;;;15.28;8.13;;;;;;;18.38;68.88;100522.36;124192;1094;103560;-79
2021/06/27 02:39:35;;;;;;;7.97;7.17;;;;;;;18.37;69.05;100526.86;124054;1099;114626;-79
2021/06/27 02:42:03;;;;;;;9.93;8.25;;;;;;;18.37;69.12;100526.00;124155;1097;103215;-79
2021/06/27 02:44:31;;;;;;;8.00;7.20;;;;;;;18.36;69.13;100524.26;124172;1097;116289;-79
2021/06/27 02:46:58;;;;;;;8.77;7.87;;;;;;;18.32;69.04;100523.55;124286;1100;103603;-78
2021/06/27 02:49:26;;;;;;;7.30;6.60;;;;;;;18.40;69.04;100514.17;124132;1098;114803;-79
2021/06/27 02:51:53;;;;;;;10.77;7.50;;;;;;;18.42;69.18;100520.33;124231;1097;103242;-78
2021/06/27 02:54:22;;;;;;;9.38;7.23;;;;;;;18.46;68.72;100525.48;124245;1098;103193;-79
2021/06/27 02:56:49;;;;;;;11.27;8.37;;;;;;;18.50;68.89;100521.64;124237;1097;114685;-78
2021/06/27 02:59:17;;;;;;;9.33;8.40;;;;;;;18.43;68.97;100520.23;124668;1096;103006;-78
2021/06/27 03:01:44;;;;;;;10.00;8.98;;;;;;;18.43;69.31;100525.63;124530;1096;116329;-79
2021/06/27 03:04:12;;;;;;;10.20;7.65;;;;;;;18.44;69.20;100518.43;124614;1096;103036;-79
2021/06/27 03:06:39;;;;;;;11.48;8.30;;;;;;;18.41;69.30;100522.17;124653;1096;103055;-78
2021/06/27 03:09:06;;;;;;;8.25;7.48;;;;;;;18.42;69.04;100528.42;124186;1096;115194;-78
2021/06/27 03:11:34;;;;;;;9.43;8.45;;;;;;;18.49;69.08;100521.73;124551;1096;103081;-78
2021/06/27 03:14:02;;;;;;;10.03;8.63;;;;;;;18.53;68.94;100521.45;124513;1095;114395;-78
2021/06/27 03:16:29;;;;;;;11.38;8.53;;;;;;;18.63;68.59;100521.78;124532;1096;103018;-79
2021/06/27 03:18:56;;;;;;;16.43;10.10;;;;;;;18.70;68.67;100519.63;124541;1096;103149;-78
2021/06/27 03:21:24;;;;;;;15.45;9.30;;;;;;;18.70;68.52;100517.78;124396;1096;116568;-78
2021/06/27 03:23:51;;;;;;;9.43;7.73;;;;;;;18.74;68.94;100514.90;124627;1096;102952;-79
2021/06/27 03:26:19;;;;;;;12.50;9.08;;;;;;;18.79;68.53;100518.20;124441;1096;115818;-78
2021/06/27 03:28:51;;;;;;;10.18;9.13;;;;;;;18.80;68.22;100514.55;124215;1096;103165;-78
2021/06/27 03:31:18;;;;;;;10.63;9.43;;;;;;;18.80;68.27;100515.41;124478;1096;115092;-78
2021/06/27 03:33:46;;;;;;;10.30;8.35;;;;;;;18.83;68.57;100522.45;124532;1096;103134;-78
2021/06/27 03:36:13;;;;;;;10.78;8.98;;;;;;;18.91;68.54;100520.20;124649;1096;103212;-79
2021/06/27 03:38:47;;;;;;;10.60;9.07;;;;;;;18.95;68.21;100510.09;124623;1096;115928;-79
2021/06/27 03:41:21;;;;;;;17.00;10.70;;;;;;;18.98;67.84;100509.91;124778;1096;103026;-79
2021/06/27 03:43:49;;;;;;;10.33;8.83;;;;;;;18.95;68.13;100508.26;124426;1095;116562;-79
2021/06/27 03:46:17;;;;;;;11.40;10.00;;;;;;;19.06;67.16;100510.34;124514;1095;103473;-78
2021/06/27 03:48:45;;;;;;;12.35;11.15;;;;;;;19.15;66.64;100514.30;125421;1096;103015;-78
2021/06/27 03:51:12;;;;;;;11.17;10.00;;;;;;;19.20;66.55;100513.05;124503;1096;115110;-78
2021/06/27 03:53:41;;;;;;;11.83;9.70;;;;;;;19.25;66.99;100514.63;124339;1096;103082;-78
2021/06/27 03:56:08;;;;;;;11.68;10.08;;;;;;;19.29;67.01;100508.08;124511;1096;116257;-78
2021/06/27 03:58:50;;;;;;;14.08;9.38;;;;;;;19.35;66.80;100508.56;124591;1096;103863;-78
2021/06/27 04:01:18;;;;;;;9.98;8.98;;;;;;;19.42;66.45;100506.36;124545;1095;116694;-79
2021/06/27 04:03:45;;;;;;;14.57;10.17;;;;;;;19.46;66.47;100510.60;124630;1096;103099;-79
2021/06/27 04:06:12;;;;;;;12.78;10.05;;;;;;;19.45;65.54;100508.86;124675;1096;103044;-78
2021/06/27 04:08:40;;;;;;;11.67;9.27;;;;;;;19.49;65.31;100507.70;124598;1096;114981;-78
2021/06/27 04:11:21;;;;;;;10.70;9.53;;;;;;;19.60;65.05;100503.47;124417;1095;103210;-78
2021/06/27 04:13:49;;;;;;;12.00;9.08;;;;;;;19.66;64.62;100495.84;124634;1094;115008;-80
2021/06/27 04:16:16;;;;;;;11.27;9.53;;;;;;;19.70;63.82;100497.39;124740;1095;103137;-79
2021/06/27 04:18:58;;;;;;;10.17;9.10;;;;;;;19.69;63.87;100494.79;124287;1095;103019;-80
2021/06/27 04:21:25;;;;;;;11.70;8.40;;;;;;;19.66;63.67;100493.14;124605;1096;116605;-79
2021/06/27 04:23:53;;;;;;;11.20;8.90;;;;;;;19.67;63.96;100484.08;124466;1096;103402;-79
2021/06/27 04:26:21;;;;;;;9.70;8.80;;;;;;;19.77;63.43;100497.88;124523;1096;116513;-79
2021/06/27 04:29:02;;;;;;;9.77;8.70;;;;;;;19.83;63.30;100496.64;124640;1096;103802;-79
2021/06/27 04:31:30;;;;;;;10.80;9.03;;;;;;;19.83;63.33;100489.42;124692;1096;114394;-79
2021/06/27 04:33:57;;;;;;;9.13;7.90;;;;;;;19.83;63.74;100491.23;124788;1096;103110;-78
2021/06/27 04:36:27;;;;;;;13.45;9.13;;;;;;;19.87;63.00;100492.77;124649;1096;103077;-79
2021/06/27 04:38:54;;;;;;;10.30;8.85;;;;;;;19.87;63.19;100499.06;124706;1096;114854;-79
2021/06/27 04:41:21;;;;;;;9.67;8.67;;;;;;;19.92;63.32;100496.05;124366;1095;103287;-78
2021/06/27 04:43:49;;;;;;;11.58;9.00;;;;;;;19.97;63.41;100496.63;124625;1096;115525;-79
2021/06/27 04:46:19;;;;;;;15.53;8.87;;;;;;;19.98;63.45;100492.97;124408;1096;103055;-79
2021/06/27 04:48:47;;;;;;;9.10;8.10;;;;;;;20.02;62.92;100501.75;124298;1096;103021;-78
2021/06/27 04:51:28;;;;;;;12.53;9.20;;;;;;;20.10;62.96;100502.13;124737;1096;113807;-79
2021/06/27 04:53:56;;;;;;;11.50;8.93;;;;;;;20.17;62.72;100499.89;124750;1096;103001;-79
2021/06/27 04:56:37;;;;;;;11.18;8.15;;;;;;;20.16;61.85;100506.26;124114;1100;115288;-78
2021/06/27 04:59:05;;;;;;;12.53;8.90;;;;;;;20.18;61.92;100505.19;124070;1099;103038;-79
2021/06/27 05:01:32;;;;;;;10.03;8.57;;;;;;;20.25;61.21;100502.10;123968;1095;114569;-80
2021/06/27 05:03:59;;;;;;;9.87;8.83;;;;;;;20.27;61.81;100510.96;124569;1096;103171;-79
2021/06/27 05:06:27;;;;;;;8.28;7.50;;;;;;;20.28;62.31;100510.00;124549;1096;103070;-79
2021/06/27 05:08:54;;;;;;;9.60;8.60;;;;;;;20.29;62.36;100504.48;124141;1095;115111;-79
2021/06/27 05:11:22;;;;;;;10.07;9.07;;;;;;;20.37;61.22;100501.28;124518;1096;103186;-79
2021/06/27 05:13:49;;;;;;;10.45;9.28;;;;;;;20.41;61.29;100496.55;124432;1096;115787;-79
2021/06/27 05:16:16;;;;;;;8.23;7.43;;;;;;;20.37;61.42;100502.14;124641;1096;102891;-79
2021/06/27 05:18:44;;;;;;;8.35;7.45;;;;;;;20.43;61.08;100502.70;124683;1096;103063;-79
2021/06/27 05:21:11;;;;;;;9.65;8.60;;;;;;;20.46;60.49;100499.79;124502;1096;115250;-80
2021/06/27 05:23:39;;;;;;;9.97;8.97;;;;;;;20.42;60.80;100498.26;124679;1096;103028;-79
2021/06/27 05:26:20;;;;;;;7.83;7.03;;;;;;;20.41;60.38;100499.25;124500;1096;114438;-78
2021/06/27 05:28:47;;;;;;;8.73;7.63;;;;;;;20.50;60.96;100498.61;124615;1096;103005;-79
2021/06/27 05:31:14;;;;;;;11.00;8.30;;;;;;;20.55;60.28;100502.77;124612;1095;113901;-78
2021/06/27 05:33:42;;;;;;;8.43;7.63;;;;;;;20.61;61.39;100497.92;124585;1096;103051;-80
2021/06/27 05:36:09;;;;;;;11.73;8.70;;;;;;;20.66;60.68;100498.45;124754;1095;103166;-80
2021/06/27 05:38:37;;;;;;;9.88;7.78;;;;;;;20.70;60.17;100500.91;124182;1095;114915;-81
2021/06/27 05:41:04;;;;;;;11.10;7.27;;;;;;;20.73;59.60;100504.36;124561;1096;102998;-79
2021/06/27 05:43:32;;;;;;;9.93;8.33;;;;;;;20.60;59.62;100504.30;124555;1096;114970;-79
2021/06/27 05:46:01;;;;;;;9.60;8.48;;;;;;;20.63;60.41;100501.38;124291;1096;103211;-80
2021/06/27 05:48:29;;;;;;;8.30;7.53;;;;;;;20.69;60.49;100495.60;124397;1096;103100;-80
2021/06/27 05:50:56;;;;;;;8.35;7.60;;;;;;;20.81;60.15;100502.88;124617;1096;115874;-78
2021/06/27 05:53:23;;;;;;;8.08;7.08;;;;;;;20.87;59.47;100496.17;124683;1096;103678;-79
2021/06/27 05:56:09;;;;;;;9.70;7.10;;;;;;;20.96;59.52;100498.25;124508;1096;114737;-80
2021/06/27 05:58:41;;;;;;;10.23;8.98;;;;;;;21.03;59.09;100493.28;125062;1096;103090;-80
2021/06/27 06:01:11;;;;;;;10.40;7.88;;;;;;;21.15;60.03;100488.87;124924;1096;103042;-79
2021/06/27 06:03:39;;;;;;;10.43;8.20;;;;;;;21.20;59.83;100492.13;124315;1095;114753;-79
2021/06/27 06:06:08;;;;;;;9.20;8.30;;;;;;;21.20;60.21;100494.84;124757;1096;103085;-79
2021/06/27 06:08:36;;;;;;;7.98;7.18;;;;;;;21.25;59.32;100499.95;124492;1096;114580;-79
2021/06/27 06:11:04;;;;;;;10.20;8.10;;;;;;;21.30;59.27;100493.23;124354;1096;103220;-79
2021/06/27 06:13:31;;;;;;;9.87;8.87;;;;;;;21.38;59.24;100496.27;124503;1095;116224;-79
2021/06/27 06:16:20;;;;;;;8.23;6.57;;;;;;;21.34;57.27;100499.31;124684;1096;103019;-79
2021/06/27 06:18:48;;;;;;;8.08;6.93;;;;;;;21.32;56.88;100503.95;124287;1096;103026;-79
2021/06/27 06:21:15;;;;;;;7.30;6.60;;;;;;;21.29;57.09;100507.73;124553;1095;115381;-79
2021/06/27 06:23:43;;;;;;;8.93;8.00;;;;;;;21.29;57.08;100505.03;124295;1095;103054;-79
2021/06/27 06:26:11;;;;;;;9.05;7.38;;;;;;;21.37;58.72;100501.80;124427;1095;114555;-79
2021/06/27 06:28:39;;;;;;;8.33;7.27;;;;;;;21.42;58.56;100502.34;124464;1096;103097;-81
2021/06/27 06:31:08;;;;;;;9.70;8.80;;;;;;;21.44;58.88;100505.80;124460;1096;103153;-79
2021/06/27 06:33:36;;;;;;;11.15;8.68;;;;;;;21.38;59.00;100506.25;124386;1095;114805;-79
2021/06/27 06:36:04;;;;;;;11.00;9.85;;;;;;;21.33;58.75;100508.41;124396;1096;103160;-80
2021/06/27 06:38:32;;;;;;;10.28;8.90;;;;;;;21.36;58.99;100514.45;124805;1096;115965;-81
2021/06/27 06:41:00;;;;;;;8.20;7.40;;;;;;;21.34;58.69;100508.29;124529;1096;103111;-79
2021/06/27 06:43:27;;;;;;;11.25;8.95;;;;;;;21.36;58.57;100508.18;124492;1096;116233;-81
2021/06/27 06:45:55;;;;;;;9.97;8.93;;;;;;;21.43;58.88;100501.34;124319;1095;103108;-79
2021/06/27 06:48:22;;;;;;;10.10;8.70;;;;;;;21.44;58.13;100507.65;124636;1096;103184;-80
2021/06/27 06:50:50;;;;;;;11.57;9.13;;;;;;;21.49;58.19;100503.63;124516;1096;114953;-79
2021/06/27 06:53:17;;;;;;;11.23;10.03;;;;;;;21.61;58.09;100501.08;124564;1096;103023;-81
2021/06/27 06:55:45;;;;;;;10.63;9.53;;;;;;;21.73;58.76;100502.05;124521;1096;116689;-80
2021/06/27 06:58:12;;;;;;;10.53;9.43;;;;;;;21.82;58.41;100499.53;124738;1096;103134;-80
2021/06/27 07:00:40;;;;;;;11.63;10.47;;;;;;;21.81;58.23;100494.22;124622;1096;102892;-80
2021/06/27 07:03:21;;;;;;;10.95;9.70;;;;;;;21.92;58.10;100499.72;124616;1096;114718;-78
2021/06/27 07:05:49;;;;;;;10.27;9.27;;;;;;;21.94;58.89;100496.89;124464;1095;103021;-79
2021/06/27 07:08:16;;;;;;;9.75;8.83;;;;;;;22.04;59.02;100497.96;124330;1096;114924;-78
2021/06/27 07:10:44;;;;;;;9.83;8.83;;;;;;;22.09;58.59;100495.78;124545;1096;103194;-79
2021/06/27 07:13:11;;;;;;;11.78;9.63;;;;;;;22.21;59.16;100499.44;124558;1096;103091;-78
2021/06/27 07:15:39;;;;;;;11.53;9.00;;;;;;;22.30;57.61;100496.05;124205;1096;114776;-79
2021/06/27 07:18:07;;;;;;;8.60;7.75;;;;;;;22.38;56.68;100503.66;124253;1096;103783;-78
2021/06/27 07:20:34;;;;;;;12.55;7.08;;;;;;;22.44;55.86;100508.61;124472;1096;116139;-79
2021/06/27 07:23:02;;;;;;;9.38;7.83;;;;;;;22.48;55.24;100510.11;124701;1095;103055;-79
2021/06/27 07:25:30;;;;;;;9.00;7.95;;;;;;;22.50;55.31;100505.45;127530;1095;115137;-80
2021/06/27 07:27:57;;;;;;;9.05;7.28;;;;;;;22.57;55.16;100503.14;126261;1095;103121;-80
2021/06/27 07:30:25;;;;;;;9.50;7.10;;;;;;;22.64;54.90;100501.68;124552;1095;103599;-79
2021/06/27 07:32:52;;;;;;;9.20;8.07;;;;;;;22.70;54.82;100508.52;124512;1096;114443;-79
2021/06/27 07:35:20;;;;;;;10.47;8.50;;;;;;;22.72;53.99;100517.39;124571;1096;102917;-78
2021/06/27 07:37:47;;;;;;;11.30;8.35;;;;;;;22.78;53.96;100514.23;123952;1096;116831;-79
2021/06/27 07:40:15;;;;;;;8.43;6.80;;;;;;;22.82;54.37;100510.30;124188;1096;103020;-79
2021/06/27 07:42:43;;;;;;;14.50;8.67;;;;;;;22.87;54.35;100505.38;124481;1096;103122;-80
2021/06/27 07:45:11;;;;;;;17.23;15.13;;;;;;;22.91;54.81;100507.85;124406;1096;114425;-80
2021/06/27 07:47:38;;;;;;;9.35;8.25;;;;;;;23.01;54.96;100508.89;124631;1096;103006;-81
2021/06/27 07:50:06;;;;;;;9.83;8.10;;;;;;;23.04;53.92;100509.52;124639;1096;114630;-80
2021/06/27 07:52:36;;;;;;;15.38;7.20;;;;;;;23.08;53.51;100507.41;124351;1096;103729;-81
2021/06/27 07:55:06;;;;;;;8.30;7.40;;;;;;;23.11;52.63;100512.63;124681;1095;103044;-80
2021/06/27 07:57:38;;;;;;;9.03;7.50;;;;;;;23.15;52.75;100492.42;124884;1095;114337;-82
2021/06/27 08:00:07;;;;;;;7.87;7.07;;;;;;;23.18;52.14;100496.75;125163;1096;102997;-80
2021/06/27 08:02:48;;;;;;;13.17;6.97;;;;;;;23.23;51.24;100491.80;124624;1096;114552;-80
2021/06/27 08:05:18;;;;;;;8.25;7.30;;;;;;;23.30;51.67;100495.78;124610;1095;103093;-80
2021/06/27 08:07:45;;;;;;;8.00;6.75;;;;;;;23.33;51.35;100494.68;124191;1095;116020;-80
2021/06/27 08:10:13;;;;;;;6.40;5.73;;;;;;;23.39;50.85;100494.17;124570;1096;103418;-80
2021/06/27 08:12:41;;;;;;;7.73;6.15;;;;;;;23.48;49.79;100498.88;124389;1096;103013;-80
2021/06/27 08:15:17;;;;;;;6.73;5.95;;;;;;;23.48;48.20;100490.73;125087;1096;114812;-80
2021/06/27 08:18:01;;;;;;;;;;;;;;;;;;;;;
2021/06/27 08:20:30;;;;;;;7.33;6.63;;;;;;;23.64;49.68;100492.23;124112;1096;114553;-81
2021/06/27 08:22:58;;;;;;;6.33;5.73;;;;;;;23.70;48.76;100491.75;124500;1095;103104;-82
2021/06/27 08:25:25;;;;;;;6.63;6.03;;;;;;;23.80;49.06;100498.16;124253;1096;115218;-82
2021/06/27 08:27:53;;;;;;;8.20;6.67;;;;;;;23.86;49.77;100489.52;124599;1095;103030;-82
2021/06/27 08:30:22;;;;;;;7.33;6.33;;;;;;;23.94;50.17;100491.66;124577;1095;103116;-83
2021/06/27 08:32:50;;;;;;;5.20;4.70;;;;;;;23.98;46.49;100490.41;124467;1096;114194;-82
2021/06/27 08:35:20;;;;;;;6.50;5.68;;;;;;;23.96;47.65;100488.80;124202;1095;103754;-81
2021/06/27 08:37:48;;;;;;;6.53;5.03;;;;;;;24.03;45.57;100495.46;124006;1096;114707;-79
2021/06/27 08:40:17;;;;;;;5.03;4.30;;;;;;;24.15;45.84;100501.76;124412;1096;103049;-81
2021/06/27 08:42:45;;;;;;;6.10;4.80;;;;;;;24.25;44.54;100505.46;124654;1096;103190;-82
2021/06/27 08:45:16;;;;;;;6.03;4.30;;;;;;;24.15;44.69;100499.03;124753;1096;114870;-85
2021/06/27 08:47:44;;;;;;;5.28;4.35;;;;;;;24.25;44.12;100488.28;124822;1096;103193;-80
2021/06/27 08:50:25;;;;;;;6.00;4.03;;;;;;;24.47;44.95;100499.11;124369;1096;115034;-79
2021/06/27 08:52:54;;;;;;;5.27;4.77;;;;;;;24.51;44.44;100497.86;124170;1096;103057;-82
2021/06/27 08:55:22;;;;;;;6.33;4.63;;;;;;;24.74;45.06;100492.37;124752;1095;114652;-80
2021/06/27 08:57:50;;;;;;;6.40;4.63;;;;;;;24.98;44.85;100494.00;124178;1096;103267;-80
2021/06/27 09:00:18;;;;;;;4.40;4.00;;;;;;;25.26;44.56;100491.59;124196;1095;103017;-80
2021/06/27 09:02:46;;;;;;;4.93;4.23;;;;;;;25.29;43.08;100480.44;124102;1096;114288;-81
2021/06/27 09:05:30;;;;;;;8.90;5.43;;;;;;;25.27;43.62;100494.20;124430;1096;103138;-81
2021/06/27 09:08:16;;;;;;;4.98;4.30;;;;;;;25.49;43.01;100490.48;124340;1096;115078;-81
2021/06/27 09:10:44;;;;;;;10.23;5.70;;;;;;;25.67;42.96;100489.84;124190;1096;103042;-80
2021/06/27 09:13:12;;;;;;;5.98;4.75;;;;;;;25.57;42.09;100489.80;124219;1097;103103;-81
2021/06/27 09:15:50;;;;;;;5.23;4.73;;;;;;;25.54;43.03;100488.21;124681;1096;113988;-80
2021/06/27 09:18:17;;;;;;;6.03;4.88;;;;;;;25.73;41.97;100489.31;124347;1095;103025;-82
2021/06/27 09:20:48;;;;;;;6.13;4.30;;;;;;;25.89;41.59;100477.89;124355;1096;114571;-82
2021/06/27 09:23:17;;;;;;;4.25;3.78;;;;;;;26.07;40.12;100471.80;124222;1095;102933;-80
2021/06/27 09:25:46;;;;;;;4.43;3.53;;;;;;;26.18;40.37;100479.88;124916;1096;116295;-78
2021/06/27 09:28:18;;;;;;;4.43;3.48;;;;;;;26.38;38.34;100469.86;124222;1096;103001;-79
2021/06/27 09:30:54;;;;;;;3.53;3.23;;;;;;;26.58;39.21;100472.59;124629;1096;103061;-83
2021/06/27 09:33:30;;;;;;;4.73;4.07;;;;;;;27.53;38.35;100466.34;124967;1096;114785;-80
2021/06/27 09:36:14;;;;;;;6.73;3.80;;;;;;;28.70;36.22;100464.02;124166;1096;103246;-84
2021/06/27 09:38:51;;;;;;;5.20;3.13;;;;;;;28.96;33.90;100474.16;124171;1096;114585;-79
2021/06/27 09:41:28;;;;;;;3.73;3.43;;;;;;;29.59;34.46;100477.71;125109;1097;103036;-81
2021/06/27 09:44:01;;;;;;;3.80;2.75;;;;;;;30.56;31.38;100469.20;124248;1096;116366;-79
2021/06/27 09:46:50;;;;;;;4.35;2.85;;;;;;;31.44;29.75;100471.25;124313;1096;102903;-80
2021/06/27 09:49:25;;;;;;;2.80;2.60;;;;;;;32.27;29.21;100482.90;124660;1096;114742;-80
2021/06/27 09:52:09;;;;;;;2.63;2.40;;;;;;;33.13;28.17;100468.16;124298;1096;102929;-81
2021/06/27 09:54:37;;;;;;;3.00;2.57;;;;;;;33.72;25.74;100467.37;124211;1096;103022;-80
2021/06/27 09:57:06;;;;;;;3.85;2.35;;;;;;;34.22;26.16;100475.08;124384;1095;114893;-82
2021/06/27 09:59:36;;;;;;;2.95;2.65;;;;;;;33.93;24.66;100483.20;124532;1096;103155;-79
2021/06/27 10:02:05;;;;;;;5.17;2.27;;;;;;;33.90;24.76;100466.17;124099;1095;115891;-80
2021/06/27 10:04:46;;;;;;;2.93;2.03;;;;;;;34.30;24.07;100472.20;124733;1096;103115;-79
2021/06/27 10:07:14;;;;;;;2.90;2.10;;;;;;;34.63;23.72;100471.71;124159;1096;103017;-83
2021/06/27 10:09:42;;;;;;;3.78;2.10;;;;;;;34.49;25.29;100460.51;124405;1096;114583;-82
2021/06/27 10:12:16;;;;;;;4.60;2.10;;;;;;;34.22;25.00;100464.02;124236;1096;103159;-81
2021/06/27 10:14:55;;;;;;;3.53;1.93;;;;;;;34.64;23.13;100448.53;124234;1096;114644;-81
2021/06/27 10:17:36;;;;;;;3.23;2.20;;;;;;;34.88;23.10;100465.82;123935;1096;103029;-77
2021/06/27 10:20:04;;;;;;;3.13;2.80;;;;;;;35.38;23.23;100454.77;124015;1096;114778;-80
2021/06/27 10:22:32;;;;;;;2.73;2.43;;;;;;;36.12;22.37;100450.47;124667;1096;103071;-80
2021/06/27 10:25:00;;;;;;;3.10;2.07;;;;;;;36.48;22.07;100455.73;124658;1096;103025;-80
2021/06/27 10:27:28;;;;;;;2.30;2.10;;;;;;;36.64;21.25;100459.16;124606;1096;115566;-81
2021/06/27 10:29:56;;;;;;;2.80;2.10;;;;;;;36.67;20.57;100455.11;124274;1096;103095;-85
2021/06/27 10:32:23;;;;;;;4.07;1.63;;;;;;;36.69;21.66;100452.99;124419;1096;114538;-82
2021/06/27 10:34:54;;;;;;;2.30;1.80;;;;;;;37.10;20.72;100455.59;124349;1095;102585;-82
2021/06/27 10:37:35;;;;;;;4.68;2.00;;;;;;;37.21;20.29;100458.80;124241;1095;116910;-79
2021/06/27 10:40:19;;;;;;;2.98;1.70;;;;;;;37.30;20.40;100455.59;124647;1096;103553;-80
2021/06/27 10:42:49;;;;;;;4.03;2.15;;;;;;;37.44;19.14;100450.02;124631;1096;103059;-81
2021/06/27 10:45:22;;;;;;;1.87;1.47;;;;;;;37.34;19.45;100461.59;124218;1096;115775;-80
2021/06/27 10:47:50;;;;;;;1.85;1.68;;;;;;;37.18;18.51;100454.52;124309;1095;104057;-81
2021/06/27 10:50:19;;;;;;;2.13;1.20;;;;;;;37.07;17.85;100457.93;124445;1096;115069;-79
2021/06/27 10:52:55;;;;;;;2.15;1.78;;;;;;;37.14;18.45;100442.98;124641;1096;103113;-81
2021/06/27 10:55:41;;;;;;;2.50;1.50;;;;;;;37.33;19.50;100456.25;124653;1096;115483;-80
2021/06/27 10:58:14;;;;;;;1.85;1.45;;;;;;;37.35;19.00;100441.08;124749;1095;103032;-80
2021/06/27 11:00:53;;;;;;;2.60;1.70;;;;;;;37.37;18.95;100444.47;124301;1094;103173;-82
2021/06/27 11:03:29;;;;;;;2.67;1.47;;;;;;;37.17;18.34;100444.47;124650;1096;115812;-80
2021/06/27 11:06:13;;;;;;;2.50;1.87;;;;;;;36.08;19.18;100443.63;124244;1099;103071;-81
2021/06/27 11:08:40;;;;;;;2.10;1.50;;;;;;;35.11;20.12;100448.97;123910;1098;115911;-81
2021/06/27 11:11:17;;;;;;;3.27;1.80;;;;;;;33.91;21.24;100459.58;124349;1096;103139;-81
2021/06/27 11:14:27;;;;;;;1.30;1.20;;;;;;;32.86;23.21;100453.91;124454;1096;115666;-80
2021/06/27 11:16:55;;;;;;;1.75;1.55;;;;;;;32.17;24.33;100447.28;124840;1096;103121;-79
2021/06/27 11:19:33;;;;;;;2.80;2.18;;;;;;;31.84;25.40;100444.68;124613;1096;114696;-79
2021/06/27 11:22:28;;;;;;;3.58;1.65;;;;;;;31.31;25.50;100458.05;124591;1095;103018;-79